x

N01 - Northeast Channel (44024) Wave Buoy

6:04am - Wed 23rd Jul 2014 All times are ADT. -3 hours from GMT.

  • Sig Wave height 2.6ft
  • Peak Period 8s
  • Wind
    11mph, 13mph gusts
  • Sea Temp 60°f
  • Air Temp 62°f
  • Sea Pressure 1015.4mb
  • N01 - Northeast Channel
  • N01 - Northeast Channel

More Historic Weather Station data

Upgrade to MSW Pro to gain access to the past 30 days of data for over 8000 Wavebouys and Weather Stations around the globe.

Join Pro

Comparision Forecast

View Surf forecast
   
Wed 07/23 6:04am 2.5ft 8s 11 13 mph 1015.4mb 60f 62f
5:04am 3.5ft 8s 9 11 mph 1015.7mb 60f 61f
4:04am 3ft 8s 9 11 mph 1015.8mb 60f 60f
3:04am 4ft 8s 9
mph
1016.3mb 61f 60f
2:04am 3.5ft 8s 11 13 mph 1017.1mb 61f 59f
1:04am 3.5ft 8s 11 13 mph 1017.7mb 60f 59f
12:04am 3ft 8s 9
mph
1017.8mb 60f 59f
Tue 07/22 11:04pm 3.5ft 8s 11 13 mph 1017.8mb 60f 60f
10:04pm 3.5ft 8s 9
mph
1017.6mb 60f 60f
9:04pm 3.5ft 8s 7 9 mph 1017.5mb 60f 60f
8:04pm 3ft 8s 7
mph
1017.7mb 61f 60f
7:04pm 3ft 8s 4 7 mph 1017.8mb 62f 60f
6:04pm 3ft 8s 2 4 mph 1018.1mb 62f 60f
5:04pm 3.5ft 8s  -  2 mph 1018.7mb 61f 61f
4:04pm 4ft 8s 2
mph
1019.2mb 61f 61f
3:04pm 4.5ft 8s 4 7 mph 1019.2mb 60f 60f
2:04pm 4ft 6s 9
mph
1020mb 60f 60f
1:04pm 3.5ft 8s 4
mph
1020mb 61f 60f
12:04pm 4ft 8s 4 7 mph 1020.1mb 62f 61f
11:04am 3.5ft 8s 4
mph
1019.8mb 61f 61f
10:04am 3.5ft 8s 4 7 mph 1020mb 61f 62f
9:04am 3.5ft 8s 4
mph
1020.2mb 61f 61f
8:04am 3.5ft 8s 2 4 mph 1020mb 61f 61f
7:04am 3.5ft 8s 4 7 mph 1019.8mb 61f 61f
6:04am 4ft 8s 7 9 mph 1019.5mb 60f 60f
5:04am 3.5ft 8s 7 9 mph 1019.4mb 60f 60f
4:04am 3.5ft 8s 9 11 mph 1019.1mb 60f 60f
3:04am 4ft 8s  -  mph - 61f -
2:04am 3.5ft 8s  -  mph - 60f -
1:04am 4.5ft 8s 7
mph
1019.9mb 61f 60f
Mon 07/21 11:04pm 4ft 8s 2 4 mph 1020.2mb 60f 60f
9:04pm 4.5ft 8s 4 7 mph 1019.5mb 59f 60f
8:04pm 4.5ft 6s 7
mph
1019.2mb 60f 60f
6:04pm 4.5ft 6s 9
mph
1019.3mb 60f 61f
5:04pm 4ft 8s 9 11 mph 1019.8mb 60f 61f
4:04pm 4ft 8s  -  mph - 60f -
2:04pm 4.5ft 5s  -  mph - 60f -
12:04pm 4.5ft 6s 13 16 mph 1020mb 59f 60f
11:04am 4.5ft 8s 13 16 mph 1020mb 59f 60f
10:04am  -   -  11 13 mph 1020.2mb - 61f
9:04am 4.5ft 8s 11 13 mph 1020mb 58f 61f
8:04am 4ft 6s 11 13 mph 1019.5mb 59f 61f
7:04am 4ft 6s 13
mph
1019.2mb 60f 62f
6:04am 4.5ft 6s 11 13 mph 1018.9mb 60f 62f
5:04am 4ft 8s 11 13 mph 1018.6mb 60f 62f
4:04am 4ft 6s 11
mph
1018.3mb 59f 62f
3:04am 5ft 8s 9 11 mph 1018.7mb 59f 62f
2:04am 5.5ft 6s 11
mph
1018.9mb 59f 62f
1:04am 5ft 6s 9 11 mph 1019.3mb 60f 62f
12:04am  -   -  11 13 mph 1019.5mb - 62f
Sun 07/20 11:04pm 4ft 6s 13 16 mph 1019.5mb 61f 62f
10:04pm 4ft 8s 11 13 mph 1019.8mb 60f 62f
9:04pm 3.5ft 6s 11 13 mph 1019.7mb 60f 62f
8:04pm 4ft 6s 11
mph
1019.8mb 60f 62f
6:04pm 3.5ft 5s 11 13 mph 1019.7mb 59f 63f
5:04pm 3ft 6s 11 13 mph 1020.3mb 61f 63f
4:04pm 3.5ft 8s 13
mph
1020.6mb 61f 63f
3:04pm 3.5ft 8s 11
mph
1021mb 60f 64f
2:04pm 3.5ft 8s 11
mph
1021.4mb 60f 63f
1:04pm 3.5ft 8s 9 11 mph 1021.9mb 61f 63f
11:04am 2.5ft 8s 11 13 mph 1021.7mb 60f 63f
9:04am 2.5ft 8s 9 11 mph 1022.6mb 60f 63f
8:04am 3ft 8s 9
mph
1022.3mb 61f 63f
7:04am 2.5ft 8s 9 11 mph 1022.1mb 61f 63f
6:04am 2.5ft 8s 9
mph
1022mb 60f 62f
5:04am 2.5ft 8s 4 7 mph 1022.2mb 60f 62f
4:04am 2.5ft 8s 7
mph
1022.1mb 60f 61f
3:04am 3ft 8s 2 4 mph 1022.5mb 60f 61f
2:04am 3ft 8s 4
mph
1023.2mb 61f 61f
1:04am 2.5ft 8s 7
mph
1023.3mb 61f 61f
Sat 07/19 11:04pm 2.5ft 8s  -  mph - 60f -
10:04pm 3ft 8s  -  mph - 59f -
9:04pm 3ft 8s 2 4 mph 1023.5mb 62f 62f
6:04pm 3ft 8s 2
mph
1023.5mb 62f 67f
5:04pm 3.5ft 8s 2 4 mph 1023.5mb 62f 64f
4:04pm 4ft 8s 2
mph
1023.8mb 61f 66f
3:04pm 4ft 8s 2
mph
1024mb 61f 65f
2:04pm 3.5ft 8s 2 4 mph 1024.4mb 60f 64f
1:04pm 3.5ft 8s 2 4 mph 1024.6mb 59f 64f
12:04pm  -   -  4
mph
1024.9mb - 63f
11:04am 3.5ft 8s 4
mph
1024.6mb 59f 62f